TYR weather

Tyler Pounds Regional Airport
Tyler, Texas, United States

Public forecast

Using degrees Fahrenheit for public forecast. Weather courtesy of forecast.io.

METAR (pilot weather report)

Retrieved 2019/09/18 01:53 UTC (29 minutes ago):

KTYR 180153Z 17004KT 10SM CLR 28/20 A2993 RMK AO2 SLP127 T02780200

TAF (pilot weather forecast)

Forecast is more than 12 hours old.

Retrieved 2019/09/17 00:48 UTC (1 day ago):

TAF KTYR 172346Z 1800/1824 15005KT P6SM SCT080 BKN250 FM180200 14005KT P6SM BKN250 FM181500 09008KT P6SM BKN040 BKN100 BKN250 FM181800 12012G20KT P6SM VCSH BKN040 BKN100